Time;durP1;ratioP1;P1;durP2;ratioP2;P2;SDS_P1;SDS_P2;PMS_P1;PMS_P2;Temp;Humidity;BMP_temperature;BMP_pressure;BME280_temperature;BME280_humidity;BME280_pressure;Samples;Min_cycle;Max_cycle;Signal;HPM_P1;HPM_P2
2021/08/21 00:00:30;;;;;;;7.32;3.92;;;;;;;15.47;89.68;99205.41;5018748;28;20049;-79
2021/08/21 00:02:57;;;;;;;4.32;3.42;;;;;;;15.25;90.07;99204.00;5032275;28;20050;-80
2021/08/21 00:05:24;;;;;;;6.05;3.28;;;;;;;15.03;90.47;99202.34;5022907;28;20057;-79
2021/08/21 00:07:53;;;;;;;5.70;3.60;;;;;;;15.03;90.95;99207.00;5035321;28;20054;-80
2021/08/21 00:10:20;;;;;;;6.40;3.42;;;;;;;14.84;91.68;99204.06;5034441;28;20386;-79
2021/08/21 00:12:47;;;;;;;4.65;3.22;;;;;;;14.95;92.41;99204.47;5033850;28;20061;-80
2021/08/21 00:15:23;;;;;;;5.63;3.47;;;;;;;15.03;90.88;99199.63;5026780;28;20481;-79
2021/08/21 00:17:50;;;;;;;4.70;3.25;;;;;;;15.24;91.18;99205.91;5031960;28;20131;-79
2021/08/21 00:20:23;;;;;;;4.78;3.55;;;;;;;15.13;90.83;99199.19;5021209;28;20516;-79
2021/08/21 00:23:10;;;;;;;8.30;3.50;;;;;;;14.98;90.32;99207.63;5017651;28;20054;-79
2021/08/21 00:26:02;;;;;;;6.90;3.15;;;;;;;14.74;91.18;99186.38;5026511;28;20456;-79
2021/08/21 00:28:30;;;;;;;5.00;3.70;;;;;;;14.68;91.36;99193.56;5019719;28;20082;-79
2021/08/21 00:33:41;;;;;;;7.43;3.10;;;;;;;14.71;91.56;99197.75;5032893;28;20053;-79
2021/08/21 00:36:17;;;;;;;5.20;3.47;;;;;;;14.71;91.46;99201.34;5015685;28;20060;-79
2021/08/21 00:38:48;;;;;;;5.55;3.10;;;;;;;14.58;91.04;99195.84;5013764;28;20073;-79
2021/08/21 00:41:15;;;;;;;4.32;3.33;;;;;;;14.60;91.35;99196.47;5013901;28;20058;-79
2021/08/21 00:43:42;;;;;;;5.68;3.00;;;;;;;14.43;91.36;99194.13;5020571;28;20104;-79
2021/08/21 00:46:09;;;;;;;5.82;3.47;;;;;;;14.45;91.59;99191.19;5019057;28;20831;-79
2021/08/21 00:48:37;;;;;;;6.22;3.58;;;;;;;14.73;91.55;99209.34;5023430;28;20053;-79
2021/08/21 00:51:04;;;;;;;5.25;3.40;;;;;;;14.68;91.01;99202.59;5014920;28;20517;-80
2021/08/21 00:53:38;;;;;;;5.72;3.72;;;;;;;14.72;91.05;99202.16;5014193;28;20053;-79
2021/08/21 00:56:15;;;;;;;5.07;3.40;;;;;;;14.42;90.75;99187.00;5026723;28;20053;-79
2021/08/21 00:58:46;;;;;;;6.43;3.42;;;;;;;14.24;91.19;99176.69;5021726;28;20050;-79
2021/08/21 01:01:23;;;;;;;6.72;3.97;;;;;;;14.34;91.96;99200.88;5016791;28;20054;-79
2021/08/21 01:06:33;;;;;;;3.58;3.03;;;;;;;14.16;93.25;99166.75;4956197;28;20125;-80
2021/08/21 01:09:00;;;;;;;6.97;3.22;;;;;;;14.32;93.55;99190.13;4986005;28;20057;-79
2021/08/21 01:11:30;;;;;;;6.13;3.10;;;;;;;14.39;91.95;99176.47;5031408;28;20486;-79
2021/08/21 01:13:57;;;;;;;5.05;3.35;;;;;;;14.39;91.14;99187.41;5016373;28;20095;-79
2021/08/21 01:16:25;;;;;;;5.65;3.17;;;;;;;14.22;91.04;99181.50;5019281;28;20100;-79
2021/08/21 01:18:52;;;;;;;7.68;3.50;;;;;;;14.15;91.34;99197.03;5021214;28;20041;-79
2021/08/21 01:21:19;;;;;;;5.85;3.47;;;;;;;14.07;92.10;99197.25;5031769;28;20053;-79
2021/08/21 01:23:47;;;;;;;7.95;3.70;;;;;;;13.92;92.58;99184.56;5026394;28;20054;-79
2021/08/21 01:29:56;;;;;;;5.82;3.58;;;;;;;14.21;91.47;99193.50;4972753;28;20059;-79
2021/08/21 01:32:23;;;;;;;6.18;3.30;;;;;;;14.18;91.51;99195.78;4986595;28;20115;-79
2021/08/21 01:34:51;;;;;;;4.68;3.33;;;;;;;13.89;92.15;99171.34;5032171;28;20041;-79
2021/08/21 01:37:18;;;;;;;4.70;3.47;;;;;;;13.81;91.83;99175.09;5029707;28;20452;-79
2021/08/21 01:39:46;;;;;;;4.43;3.33;;;;;;;13.85;92.12;99186.47;5031512;28;20042;-79
2021/08/21 01:42:13;;;;;;;5.80;3.65;;;;;;;13.85;92.21;99199.28;5033168;28;20049;-79
2021/08/21 01:44:41;;;;;;;6.07;2.80;;;;;;;13.96;91.93;99190.50;5032303;28;20057;-78
2021/08/21 01:47:09;;;;;;;8.68;3.22;;;;;;;14.05;91.67;99186.53;5031947;28;20041;-79
2021/08/21 01:49:37;;;;;;;6.90;3.40;;;;;;;14.07;91.43;99181.66;5032538;28;20053;-79
2021/08/21 01:52:05;;;;;;;5.38;3.60;;;;;;;14.13;91.51;99185.47;5013976;28;20046;-79
2021/08/21 01:54:33;;;;;;;4.30;3.35;;;;;;;14.12;91.07;99178.31;5026634;28;20069;-79
2021/08/21 01:57:01;;;;;;;3.88;2.90;;;;;;;14.03;91.34;99180.44;5013835;28;20119;-79
2021/08/21 01:59:31;;;;;;;3.90;2.65;;;;;;;13.86;92.68;99171.75;5018515;28;20087;-79
2021/08/21 02:01:59;;;;;;;5.60;2.95;;;;;;;13.98;92.24;99182.91;5023250;28;20049;-80
2021/08/21 02:04:28;;;;;;;5.43;2.97;;;;;;;13.90;92.13;99185.84;5020368;28;20057;-79
2021/08/21 02:06:55;;;;;;;4.80;2.70;;;;;;;14.03;91.67;99183.16;5030788;28;20100;-79
2021/08/21 02:09:24;;;;;;;3.83;2.83;;;;;;;13.85;92.20;99156.41;5029589;28;20053;-79
2021/08/21 02:11:53;;;;;;;4.18;3.53;;;;;;;14.00;92.47;99186.31;5032175;28;20045;-79
2021/08/21 02:14:21;;;;;;;5.68;3.00;;;;;;;13.83;92.05;99174.06;5032646;28;20049;-80
2021/08/21 02:16:50;;;;;;;4.60;3.03;;;;;;;13.71;92.16;99174.63;5015398;28;20120;-79
2021/08/21 02:19:17;;;;;;;3.45;2.85;;;;;;;13.70;92.42;99177.56;5018645;28;20425;-79
2021/08/21 02:21:45;;;;;;;6.10;3.05;;;;;;;13.76;92.46;99168.56;5024454;28;20099;-79
2021/08/21 02:24:13;;;;;;;3.80;2.83;;;;;;;13.59;92.50;99157.16;5032612;28;20448;-78
2021/08/21 02:26:42;;;;;;;6.22;3.20;;;;;;;13.78;92.26;99175.50;5018620;28;20053;-79
2021/08/21 02:29:10;;;;;;;6.82;3.00;;;;;;;13.66;92.25;99165.41;5012819;28;20128;-79
2021/08/21 02:31:37;;;;;;;4.07;3.10;;;;;;;13.72;91.82;99157.22;5014031;28;20455;-79
2021/08/21 02:34:05;;;;;;;3.20;2.70;;;;;;;13.70;91.43;99164.78;5017015;28;20100;-79
2021/08/21 02:36:33;;;;;;;6.75;2.85;;;;;;;13.75;91.16;99162.25;5031955;28;20104;-79
2021/08/21 02:39:02;;;;;;;4.13;3.03;;;;;;;13.69;90.88;99156.78;5030217;28;20053;-79
2021/08/21 02:41:29;;;;;;;3.25;2.78;;;;;;;13.57;91.38;99170.19;5025896;28;20461;-79
2021/08/21 02:43:55;;;;;;;5.53;3.22;;;;;;;13.42;92.09;99160.25;5013668;28;20490;-79
2021/08/21 02:46:22;;;;;;;3.92;2.60;;;;;;;13.24;92.38;99146.28;5023241;28;20049;-79
2021/08/21 02:48:49;;;;;;;5.85;2.92;;;;;;;13.26;92.92;99168.75;5030869;28;20525;-79
2021/08/21 02:51:16;;;;;;;5.63;2.70;;;;;;;13.30;93.03;99172.78;5025887;28;20182;-79
2021/08/21 02:53:43;;;;;;;6.03;2.80;;;;;;;13.22;93.53;99153.84;5031247;28;20049;-79
2021/08/21 02:56:11;;;;;;;4.78;3.25;;;;;;;13.16;93.65;99158.22;5031275;28;20095;-79
2021/08/21 02:58:38;;;;;;;5.07;2.60;;;;;;;13.23;93.72;99160.97;5023423;28;20053;-78
2021/08/21 03:01:04;;;;;;;4.47;2.83;;;;;;;13.34;93.28;99148.66;5026888;28;20461;-79
2021/08/21 03:03:31;;;;;;;4.75;2.70;;;;;;;13.47;92.99;99161.53;5025521;28;20053;-79
2021/08/21 03:05:58;;;;;;;3.95;2.95;;;;;;;13.15;93.25;99144.78;5021276;28;20053;-79
2021/08/21 03:08:25;;;;;;;3.30;2.72;;;;;;;13.12;93.00;99134.25;5026724;28;20104;-78
2021/08/21 03:10:51;;;;;;;3.92;2.85;;;;;;;13.04;93.09;99140.72;5015813;28;20096;-79
2021/08/21 03:13:19;;;;;;;6.65;2.75;;;;;;;13.08;93.33;99142.00;5028076;28;20049;-79
2021/08/21 03:15:46;;;;;;;5.78;2.95;;;;;;;13.13;93.57;99161.34;5021704;28;20563;-79
2021/08/21 03:18:13;;;;;;;3.67;3.22;;;;;;;13.25;93.72;99164.34;5031493;28;20091;-79
2021/08/21 03:20:40;;;;;;;5.90;3.45;;;;;;;13.30;92.79;99153.66;5015897;28;20050;-78
2021/08/21 03:23:07;;;;;;;6.28;3.38;;;;;;;13.22;93.48;99160.13;5019069;28;20049;-79
2021/08/21 03:25:34;;;;;;;7.45;3.10;;;;;;;13.12;93.71;99167.00;5021298;28;20056;-78
2021/08/21 03:28:01;;;;;;;5.05;3.00;;;;;;;12.98;94.16;99149.72;5023047;28;20042;-79
2021/08/21 03:30:29;;;;;;;6.00;2.95;;;;;;;13.00;94.81;99162.09;5013400;28;20494;-78
2021/08/21 03:32:56;;;;;;;4.28;2.97;;;;;;;13.14;94.55;99167.63;5014278;28;20108;-79
2021/08/21 03:35:23;;;;;;;11.50;3.05;;;;;;;12.95;95.03;99145.50;5017360;28;20475;-79
2021/08/21 03:37:49;;;;;;;7.35;3.40;;;;;;;13.05;95.33;99165.09;5012615;28;20050;-79
2021/08/21 03:40:16;;;;;;;4.82;3.25;;;;;;;12.89;96.25;99143.59;5012352;28;20045;-79
2021/08/21 03:42:43;;;;;;;6.68;3.35;;;;;;;13.16;95.89;99169.13;5012923;28;20053;-79
2021/08/21 03:45:10;;;;;;;9.68;3.25;;;;;;;13.23;95.64;99161.81;5032742;28;20045;-79
2021/08/21 03:47:38;;;;;;;5.90;3.50;;;;;;;13.43;94.96;99158.38;5025791;28;20107;-79
2021/08/21 03:50:06;;;;;;;5.32;3.22;;;;;;;13.33;94.84;99145.06;5026004;28;20124;-79
2021/08/21 03:52:33;;;;;;;4.13;3.13;;;;;;;13.49;94.95;99156.69;5025940;28;20127;-79
2021/08/21 03:55:00;;;;;;;6.35;3.10;;;;;;;13.40;94.49;99140.50;5026815;28;20104;-79
2021/08/21 03:57:26;;;;;;;5.90;3.00;;;;;;;13.32;95.17;99146.09;5024805;28;20046;-79
2021/08/21 03:59:53;;;;;;;4.10;2.80;;;;;;;13.43;95.07;99152.91;5022929;28;20049;-79
2021/08/21 04:02:20;;;;;;;4.57;3.10;;;;;;;13.49;94.72;99157.56;5040520;28;20122;-79
2021/08/21 04:04:48;;;;;;;5.70;3.35;;;;;;;13.56;94.33;99160.31;5032582;28;20049;-79
2021/08/21 04:07:18;;;;;;;6.40;3.00;;;;;;;13.56;94.17;99147.47;5031713;28;20053;-79
2021/08/21 04:09:45;;;;;;;7.10;3.45;;;;;;;13.63;93.86;99159.28;5012988;28;20526;-79
2021/08/21 04:12:14;;;;;;;6.20;2.90;;;;;;;13.41;94.94;99144.06;5019873;28;20049;-79
2021/08/21 04:14:40;;;;;;;4.07;3.10;;;;;;;13.42;95.17;99149.31;5023885;28;20141;-79
2021/08/21 04:17:07;;;;;;;3.97;3.10;;;;;;;13.34;95.77;99137.72;5011892;28;20096;-79
2021/08/21 04:19:34;;;;;;;8.00;3.10;;;;;;;13.45;95.99;99164.47;5019693;28;20054;-79
2021/08/21 04:22:02;;;;;;;5.88;3.28;;;;;;;13.41;95.72;99155.84;5030415;28;20567;-79
2021/08/21 04:24:29;;;;;;;5.93;3.03;;;;;;;13.53;95.60;99166.19;5034275;28;20049;-78
2021/08/21 04:26:56;;;;;;;7.13;2.95;;;;;;;13.54;94.65;99155.03;5022608;28;20061;-79
2021/08/21 04:29:22;;;;;;;7.53;3.03;;;;;;;13.76;94.44;99165.81;5030178;28;20107;-79
2021/08/21 04:31:49;;;;;;;3.72;3.00;;;;;;;13.67;94.98;99156.13;5019073;28;20070;-80
2021/08/21 04:34:16;;;;;;;5.53;2.75;;;;;;;13.73;95.12;99169.84;5015171;28;20061;-80
2021/08/21 04:36:43;;;;;;;3.90;3.20;;;;;;;13.75;94.96;99172.34;5022399;28;20045;-80
2021/08/21 04:39:11;;;;;;;4.28;2.78;;;;;;;13.78;94.96;99167.31;5021129;28;20045;-80
2021/08/21 04:41:38;;;;;;;3.03;2.40;;;;;;;13.73;95.20;99178.03;5030873;28;20049;-80
2021/08/21 04:44:05;;;;;;;6.90;3.35;;;;;;;13.72;95.31;99170.03;5014972;28;20510;-79
2021/08/21 04:46:35;;;;;;;8.88;4.05;;;;;;;13.90;94.57;99177.66;5014492;28;20054;-79
2021/08/21 04:49:02;;;;;;;8.23;3.15;;;;;;;13.75;94.74;99164.16;5019660;28;20121;-80
2021/08/21 04:51:28;;;;;;;5.07;3.03;;;;;;;13.70;95.34;99167.50;5030242;28;20049;-80
2021/08/21 04:53:55;;;;;;;4.93;3.22;;;;;;;13.77;95.28;99181.19;5029123;28;20115;-80
2021/08/21 04:56:23;;;;;;;3.58;3.08;;;;;;;13.76;94.79;99171.28;5016103;28;20054;-80
2021/08/21 04:58:50;;;;;;;3.95;2.92;;;;;;;13.73;94.99;99174.44;5016690;28;20050;-80
2021/08/21 05:01:17;;;;;;;4.72;3.38;;;;;;;13.96;94.38;99176.84;5032542;28;20049;-80
2021/08/21 05:03:44;;;;;;;3.58;2.70;;;;;;;13.96;94.26;99166.72;5025328;28;20530;-80
2021/08/21 05:06:11;;;;;;;10.70;3.17;;;;;;;13.99;94.15;99171.78;5015578;28;20054;-80
2021/08/21 05:08:38;;;;;;;5.18;3.08;;;;;;;14.02;93.86;99161.50;5041454;28;20067;-80
2021/08/21 05:11:04;;;;;;;3.78;2.92;;;;;;;13.99;94.17;99160.00;5027239;28;20194;-80
2021/08/21 05:13:33;;;;;;;5.78;3.38;;;;;;;14.25;93.44;99174.78;5020709;28;20151;-80
2021/08/21 05:16:00;;;;;;;6.43;3.30;;;;;;;14.30;92.81;99159.44;5023202;28;20050;-80
2021/08/21 05:18:29;;;;;;;6.65;2.92;;;;;;;14.49;92.91;99181.53;5031483;28;20049;-80
2021/08/21 05:21:05;;;;;;;6.32;2.88;;;;;;;14.69;91.79;99181.53;5028682;28;20406;-80
2021/08/21 05:23:32;;;;;;;4.65;3.30;;;;;;;14.67;91.38;99186.41;5023332;28;20049;-80
2021/08/21 05:25:59;;;;;;;4.50;3.20;;;;;;;14.69;91.49;99187.00;5022972;28;20042;-80
2021/08/21 05:28:26;;;;;;;4.88;3.17;;;;;;;14.74;91.10;99178.16;5031460;28;20324;-80
2021/08/21 05:30:54;;;;;;;4.35;3.03;;;;;;;14.90;92.15;99190.59;5015279;28;20054;-80
2021/08/21 05:33:21;;;;;;;4.40;2.70;;;;;;;14.96;90.71;99182.34;5018615;28;20053;-80
2021/08/21 05:35:48;;;;;;;6.32;3.17;;;;;;;15.04;90.25;99184.03;5020269;28;20108;-80
2021/08/21 05:38:15;;;;;;;6.75;3.17;;;;;;;15.26;90.64;99172.81;5014309;28;20386;-80
2021/08/21 05:40:42;;;;;;;6.50;3.33;;;;;;;15.41;90.13;99178.88;5029986;28;20207;-80
2021/08/21 05:43:09;;;;;;;6.97;3.28;;;;;;;15.32;91.07;99175.53;5029469;28;20136;-80
2021/08/21 05:45:36;;;;;;;6.03;3.15;;;;;;;15.34;91.52;99170.69;5023359;28;20053;-80
2021/08/21 05:48:05;;;;;;;4.88;2.80;;;;;;;15.52;90.81;99182.84;5033166;28;20103;-80
2021/08/21 05:50:32;;;;;;;4.30;2.70;;;;;;;15.65;90.75;99177.28;5025169;28;20095;-80
2021/08/21 05:52:58;;;;;;;4.35;3.10;;;;;;;15.74;89.21;99170.50;5032776;28;20057;-80
2021/08/21 05:55:25;;;;;;;10.40;3.75;;;;;;;16.08;88.25;99186.81;5027300;28;20061;-81
2021/08/21 05:57:52;;;;;;;3.63;3.03;;;;;;;16.17;87.89;99170.94;5013635;28;20100;-80
2021/08/21 06:00:19;;;;;;;7.43;3.25;;;;;;;16.48;86.72;99178.28;5016713;28;20052;-80
2021/08/21 06:02:46;;;;;;;4.82;3.60;;;;;;;16.72;86.06;99173.03;5015993;28;20097;-81
2021/08/21 06:05:14;;;;;;;4.00;3.35;;;;;;;17.16;84.57;99182.13;5025260;28;20069;-80
2021/08/21 06:07:41;;;;;;;4.85;3.08;;;;;;;17.28;82.62;99173.97;5013260;28;20042;-80
2021/08/21 06:10:09;;;;;;;5.50;3.58;;;;;;;17.50;82.47;99194.44;5021191;28;20093;-81
2021/08/21 06:12:36;;;;;;;5.68;2.83;;;;;;;17.64;80.65;99197.91;5023896;28;20053;-80
2021/08/21 06:15:05;;;;;;;4.90;3.85;;;;;;;17.32;81.70;99199.94;5024689;28;20046;-81
2021/08/21 06:17:31;;;;;;;4.78;3.20;;;;;;;17.48;81.78;99198.50;5018418;28;20099;-81
2021/08/21 06:19:58;;;;;;;7.05;3.30;;;;;;;17.59;80.59;99196.91;5019577;28;20049;-81
2021/08/21 06:22:26;;;;;;;5.32;3.47;;;;;;;17.71;80.20;99196.97;5014333;28;20042;-81
2021/08/21 06:24:53;;;;;;;5.97;3.50;;;;;;;17.83;79.36;99195.13;5026436;28;20049;-81
2021/08/21 06:27:20;;;;;;;6.78;3.15;;;;;;;18.06;78.63;99199.91;5022824;28;20537;-81
2021/08/21 06:29:47;;;;;;;6.93;3.38;;;;;;;18.06;78.79;99190.81;5026719;28;20497;-81
2021/08/21 06:32:14;;;;;;;4.32;3.05;;;;;;;18.09;79.06;99193.09;5022054;28;20041;-81
2021/08/21 06:34:40;;;;;;;3.78;2.78;;;;;;;18.19;78.97;99187.88;5028985;28;20049;-82
2021/08/21 06:37:08;;;;;;;12.63;2.97;;;;;;;18.19;80.36;99198.88;5024954;28;20050;-81
2021/08/21 06:39:36;;;;;;;6.53;2.80;;;;;;;18.47;79.18;99189.13;5022999;28;20049;-82
2021/08/21 06:42:04;;;;;;;3.33;2.63;;;;;;;18.63;78.46;99193.97;5019982;28;20122;-81
2021/08/21 06:44:30;;;;;;;7.60;2.78;;;;;;;18.79;76.98;99195.19;5025500;28;20087;-82
2021/08/21 06:46:57;;;;;;;7.50;3.65;;;;;;;19.03;75.92;99200.72;5032826;28;20107;-81
2021/08/21 06:49:38;;;;;;;12.57;3.42;;;;;;;19.18;75.60;99203.84;5014782;28;20099;-81
2021/08/21 06:52:06;;;;;;;4.22;3.05;;;;;;;19.08;74.54;99185.16;5030307;28;20422;-82
2021/08/21 06:54:32;;;;;;;3.17;2.88;;;;;;;19.25;74.27;99203.72;5031158;28;20050;-81
2021/08/21 06:57:01;;;;;;;7.93;3.08;;;;;;;19.47;73.84;99198.41;5031204;28;20547;-80
2021/08/21 06:59:27;;;;;;;12.52;3.10;;;;;;;19.74;73.08;99186.84;5032210;28;20065;-81
2021/08/21 07:01:54;;;;;;;5.53;2.63;;;;;;;19.95;72.81;99188.97;5022599;28;20046;-80
2021/08/21 07:04:21;;;;;;;3.35;2.63;;;;;;;19.77;73.86;99184.47;5012195;28;20049;-80
2021/08/21 07:06:48;;;;;;;3.35;2.90;;;;;;;19.63;74.89;99180.28;5012697;28;20045;-82
2021/08/21 07:09:14;;;;;;;3.67;2.90;;;;;;;19.91;74.69;99186.94;5027232;28;20413;-80
2021/08/21 07:11:41;;;;;;;3.95;2.85;;;;;;;19.84;73.92;99177.97;5051437;28;20045;-81
2021/08/21 07:14:09;;;;;;;4.88;2.78;;;;;;;19.82;73.93;99167.19;5027577;28;20108;-80
2021/08/21 07:16:36;;;;;;;4.60;2.85;;;;;;;19.72;74.15;99173.31;5030756;28;20053;-80
2021/08/21 07:19:05;;;;;;;4.85;2.67;;;;;;;19.85;73.87;99177.72;5018175;28;20042;-81
2021/08/21 07:21:32;;;;;;;4.15;3.00;;;;;;;19.98;73.46;99174.66;5032588;28;20080;-81
2021/08/21 07:23:59;;;;;;;5.55;3.58;;;;;;;20.29;73.13;99185.44;5025548;28;20049;-81
2021/08/21 07:26:26;;;;;;;5.38;2.78;;;;;;;20.59;71.74;99168.56;5026815;28;20049;-80
2021/08/21 07:28:52;;;;;;;7.50;2.72;;;;;;;21.12;69.70;99165.56;5047470;28;20477;-81
2021/08/21 07:31:21;;;;;;;6.43;2.97;;;;;;;21.49;69.95;99168.56;5019927;28;20501;-81
2021/08/21 07:33:53;;;;;;;4.10;2.50;;;;;;;21.48;67.69;99190.94;5013084;28;20050;-80
2021/08/21 07:36:19;;;;;;;5.43;2.40;;;;;;;21.89;67.79;99184.03;5028613;28;20046;-81
2021/08/21 07:38:47;;;;;;;5.95;2.97;;;;;;;21.82;67.65;99166.78;5032324;28;20045;-81
2021/08/21 07:41:14;;;;;;;3.83;2.47;;;;;;;21.77;67.40;99168.63;5022765;28;20042;-81
2021/08/21 07:43:40;;;;;;;7.07;2.42;;;;;;;21.79;67.66;99174.78;5028468;28;20057;-81
2021/08/21 07:46:07;;;;;;;4.28;2.80;;;;;;;21.48;66.81;99177.09;5026837;28;20037;-81
2021/08/21 07:48:35;;;;;;;5.35;2.40;;;;;;;21.66;68.78;99181.53;5030491;28;20045;-80
2021/08/21 07:51:02;;;;;;;4.40;2.40;;;;;;;21.94;66.69;99179.66;5023726;28;20490;-80
2021/08/21 07:53:29;;;;;;;3.38;2.30;;;;;;;22.36;64.14;99168.75;5022989;28;20049;-81
2021/08/21 07:55:55;;;;;;;3.58;2.45;;;;;;;22.70;64.07;99181.50;5026852;28;20049;-81
2021/08/21 07:58:22;;;;;;;4.55;2.45;;;;;;;22.79;64.05;99169.69;5016222;28;20049;-81
2021/08/21 08:00:49;;;;;;;2.60;1.92;;;;;;;22.90;63.04;99184.47;5032392;28;20058;-81
2021/08/21 08:03:16;;;;;;;3.40;2.13;;;;;;;22.85;62.97;99167.78;5024567;28;20461;-81
2021/08/21 08:05:45;;;;;;;9.60;2.22;;;;;;;22.94;62.57;99171.75;5035544;28;20060;-81
2021/08/21 08:08:11;;;;;;;4.13;2.10;;;;;;;23.16;60.71;99179.13;5033699;28;20045;-81
2021/08/21 08:10:38;;;;;;;5.28;2.17;;;;;;;23.14;63.07;99190.47;5033667;28;20054;-80
2021/08/21 08:13:05;;;;;;;3.13;2.33;;;;;;;22.80;61.55;99190.75;5027697;28;20088;-81
2021/08/21 08:15:32;;;;;;;5.07;2.53;;;;;;;22.70;61.56;99176.84;5035215;28;20054;-81
2021/08/21 08:17:58;;;;;;;4.18;2.45;;;;;;;22.94;62.80;99188.38;5033112;28;20135;-81
2021/08/21 08:20:26;;;;;;;5.15;2.80;;;;;;;23.09;63.71;99190.44;5030226;28;20100;-81
2021/08/21 08:22:55;;;;;;;4.20;2.53;;;;;;;22.85;62.32;99178.03;5018676;28;20072;-81
2021/08/21 08:25:21;;;;;;;3.03;2.22;;;;;;;22.70;60.62;99174.06;5016721;28;20049;-80
2021/08/21 08:27:48;;;;;;;4.93;2.85;;;;;;;22.92;60.60;99184.19;5025622;28;20104;-80
2021/08/21 08:30:18;;;;;;;4.95;2.80;;;;;;;23.02;63.96;99192.59;5024732;28;20045;-81
2021/08/21 08:32:45;;;;;;;6.32;3.60;;;;;;;22.97;62.20;99179.53;5018956;28;20057;-81
2021/08/21 08:35:13;;;;;;;3.65;2.47;;;;;;;23.21;62.76;99187.47;5029096;28;20057;-80
2021/08/21 08:37:41;;;;;;;3.08;2.47;;;;;;;23.17;63.59;99182.72;5026291;28;20104;-80
2021/08/21 08:40:11;;;;;;;3.65;2.55;;;;;;;23.19;60.52;99186.06;5017342;28;20099;-81
2021/08/21 08:42:40;;;;;;;3.80;2.63;;;;;;;23.27;63.30;99185.56;5030365;28;20053;-80
2021/08/21 08:45:08;;;;;;;4.97;2.45;;;;;;;23.25;62.26;99187.78;5033736;28;20091;-80
2021/08/21 08:47:36;;;;;;;4.60;2.53;;;;;;;23.31;62.13;99181.16;5018090;28;20046;-80
2021/08/21 08:50:04;;;;;;;4.80;2.63;;;;;;;23.17;60.88;99179.94;5033841;28;20056;-80
2021/08/21 08:52:32;;;;;;;3.80;2.33;;;;;;;23.26;62.00;99173.63;5034074;28;20049;-80
2021/08/21 08:54:59;;;;;;;7.63;2.30;;;;;;;23.53;60.84;99177.38;5026904;28;20059;-80
2021/08/21 08:57:36;;;;;;;3.83;2.28;;;;;;;23.48;60.79;99175.41;5022835;28;20053;-80
2021/08/21 09:00:05;;;;;;;9.93;2.75;;;;;;;23.57;59.89;99162.69;5015437;28;20050;-80
2021/08/21 09:02:34;;;;;;;3.13;2.60;;;;;;;23.60;60.14;99164.09;5020930;28;20050;-80
2021/08/21 09:05:02;;;;;;;4.80;2.72;;;;;;;23.91;60.44;99175.31;5035172;28;20128;-81
2021/08/21 09:07:39;;;;;;;5.72;2.70;;;;;;;23.73;58.99;99171.91;5034919;28;20115;-80
2021/08/21 09:10:17;;;;;;;9.95;2.67;;;;;;;23.75;58.70;99174.44;5015654;28;20064;-81
2021/08/21 09:12:45;;;;;;;3.42;2.58;;;;;;;23.96;62.84;99180.91;5023019;28;20123;-79
2021/08/21 09:15:24;;;;;;;5.10;2.78;;;;;;;23.88;59.43;99182.28;5033133;28;20045;-79
2021/08/21 09:18:10;;;;;;;3.75;2.75;;;;;;;23.58;60.56;99182.97;5024618;28;20120;-80
2021/08/21 09:20:56;;;;;;;5.82;3.15;;;;;;;23.82;59.82;99180.56;5014083;28;20045;-79
2021/08/21 09:23:26;;;;;;;4.43;2.80;;;;;;;24.08;61.74;99184.28;5029687;28;20083;-80
2021/08/21 09:25:54;;;;;;;4.22;2.30;;;;;;;24.23;61.08;99177.91;5015257;28;20050;-79
2021/08/21 09:28:24;;;;;;;3.88;2.90;;;;;;;24.24;57.94;99179.59;5013797;28;20057;-80
2021/08/21 09:31:02;;;;;;;5.55;2.30;;;;;;;24.22;60.67;99173.47;5018616;28;20056;-80
2021/08/21 09:33:29;;;;;;;7.18;3.50;;;;;;;24.27;60.68;99170.72;5032913;28;20080;-80
2021/08/21 09:35:56;;;;;;;3.90;2.88;;;;;;;24.39;58.88;99176.84;5029514;28;20899;-80
2021/08/21 09:38:25;;;;;;;6.75;3.05;;;;;;;24.42;58.29;99167.13;5033406;28;20042;-80
2021/08/21 09:41:00;;;;;;;5.47;2.78;;;;;;;24.61;61.16;99174.94;5029907;28;20072;-80
2021/08/21 09:43:32;;;;;;;9.75;2.78;;;;;;;24.53;58.47;99173.53;5022402;28;20132;-80
2021/08/21 09:46:23;;;;;;;4.60;2.85;;;;;;;24.29;57.93;99162.09;5032887;28;20085;-80
2021/08/21 09:49:03;;;;;;;4.53;2.97;;;;;;;24.55;57.24;99157.41;5011683;28;20049;-80
2021/08/21 09:51:38;;;;;;;6.22;3.50;;;;;;;24.73;58.09;99156.88;5014129;28;20449;-79
2021/08/21 09:54:06;;;;;;;6.63;2.92;;;;;;;24.73;58.75;99153.25;5018207;28;20045;-79
2021/08/21 09:56:33;;;;;;;5.70;2.75;;;;;;;24.87;59.44;99161.84;5024810;28;20095;-79
2021/08/21 09:59:02;;;;;;;3.92;2.70;;;;;;;24.97;58.31;99159.06;5027539;28;20045;-79
2021/08/21 10:01:29;;;;;;;9.93;3.60;;;;;;;25.07;57.74;99147.94;5025391;28;20050;-79
2021/08/21 10:03:56;;;;;;;4.28;3.05;;;;;;;25.16;56.27;99142.63;5034085;28;20103;-79
2021/08/21 10:06:23;;;;;;;7.65;3.22;;;;;;;25.33;59.58;99153.47;5029346;28;20065;-80
2021/08/21 10:08:54;;;;;;;10.00;3.00;;;;;;;25.19;57.25;99149.59;5013425;28;20061;-80
2021/08/21 10:11:21;;;;;;;3.90;2.90;;;;;;;25.01;59.30;99142.69;5023564;28;20050;-80
2021/08/21 10:13:48;;;;;;;6.93;3.08;;;;;;;25.13;56.43;99142.34;5040564;28;20045;-80
2021/08/21 10:16:18;;;;;;;4.57;3.20;;;;;;;25.08;55.46;99134.84;5029352;28;20049;-80
2021/08/21 10:18:48;;;;;;;4.28;3.25;;;;;;;25.11;57.02;99125.13;5026938;28;20338;-80
2021/08/21 10:21:15;;;;;;;;;;;;;;;25.30;57.86;99142.06;5019225;28;20116;-80
2021/08/21 10:23:44;;;;;;;3.58;2.85;;;;;;;25.51;57.45;99142.84;5014877;28;19921;-80
2021/08/21 10:26:17;;;;;;;4.47;2.93;;;;;;;25.51;53.26;99134.50;5012991;28;20137;-80
2021/08/21 10:28:45;;;;;;;8.20;2.67;;;;;;;25.77;53.58;99122.13;5031284;28;20050;-80
2021/08/21 10:31:33;;;;;;;4.53;3.00;;;;;;;26.03;54.52;99129.50;5018945;28;20056;-80
2021/08/21 10:34:04;;;;;;;6.80;3.13;;;;;;;26.03;55.61;99130.38;5027013;28;20472;-79
2021/08/21 10:36:42;;;;;;;4.80;3.55;;;;;;;26.00;53.24;99110.59;5029924;28;20077;-79
2021/08/21 10:39:36;;;;;;;7.03;3.30;;;;;;;25.97;52.11;99118.38;5030418;28;20045;-80
2021/08/21 10:42:25;;;;;;;4.53;2.92;;;;;;;26.23;53.45;99120.19;5030319;28;20076;-80
2021/08/21 10:44:53;;;;;;;3.85;3.08;;;;;;;26.29;51.83;99111.50;5030995;28;20045;-80
2021/08/21 10:47:41;;;;;;;3.80;2.90;;;;;;;26.51;53.02;99115.78;5024669;28;20061;-80
2021/08/21 10:50:35;;;;;;;5.63;3.53;;;;;;;26.60;52.18;99124.34;5028318;28;20176;-80
2021/08/21 10:53:04;;;;;;;4.10;2.97;;;;;;;26.60;51.58;99118.78;5027383;28;20053;-80
2021/08/21 10:55:44;;;;;;;4.57;3.22;;;;;;;26.54;51.64;99106.00;5028097;28;20054;-80
2021/08/21 10:58:16;;;;;;;6.20;3.30;;;;;;;26.87;50.12;99109.91;5025567;28;20048;-80
2021/08/21 11:01:05;;;;;;;5.22;3.30;;;;;;;27.01;51.52;99118.44;5032232;28;20037;-80
2021/08/21 11:03:50;;;;;;;4.57;3.43;;;;;;;27.23;50.62;99111.50;5012026;28;20073;-80
2021/08/21 11:06:31;;;;;;;5.07;3.78;;;;;;;27.20;50.48;99110.97;5029780;28;20410;-80
2021/08/21 11:09:12;;;;;;;4.88;3.35;;;;;;;27.09;48.95;99112.19;5030940;28;20486;-80
2021/08/21 11:11:51;;;;;;;5.20;3.25;;;;;;;27.32;50.32;99102.19;5030860;28;20046;-80
2021/08/21 11:17:38;;;;;;;6.95;3.53;;;;;;;27.39;47.92;99085.09;4989438;28;20101;-80
2021/08/21 11:20:28;;;;;;;5.53;3.90;;;;;;;27.59;48.15;99102.72;5023495;28;20058;-80
2021/08/21 11:23:20;;;;;;;8.18;3.53;;;;;;;27.59;47.53;99097.94;5026537;28;20049;-80
2021/08/21 11:25:47;;;;;;;5.07;3.42;;;;;;;27.51;47.29;99101.41;5029009;28;20119;-80
2021/08/21 11:28:24;;;;;;;5.78;3.72;;;;;;;27.71;48.29;99091.94;5027224;28;20481;-80
2021/08/21 11:31:10;;;;;;;4.97;3.42;;;;;;;27.80;48.24;99095.72;5016917;28;20080;-80
2021/08/21 11:43:22;;;;;;;4.70;3.78;;;;;;;28.11;44.50;99075.75;5025108;28;20650;-80
2021/08/21 11:46:22;;;;;;;9.45;4.88;;;;;;;28.22;45.65;99084.78;5022257;28;20054;-79
2021/08/21 11:48:50;;;;;;;10.10;4.45;;;;;;;28.37;45.96;99080.91;5016424;28;20517;-80
2021/08/21 11:51:23;;;;;;;9.90;6.03;;;;;;;28.32;46.37;99079.03;5032621;28;20049;-80
2021/08/21 11:53:50;;;;;;;14.95;3.67;;;;;;;28.47;47.26;99080.75;5020489;28;20229;-80
2021/08/21 11:56:18;;;;;;;6.30;3.20;;;;;;;28.39;47.16;99082.28;5030859;28;20099;-80
2021/08/21 11:58:46;;;;;;;10.35;3.35;;;;;;;28.26;45.87;99085.84;5029924;28;20490;-80
2021/08/21 12:01:14;;;;;;;6.35;3.42;;;;;;;28.20;44.82;99075.88;5016699;28;20056;-80
2021/08/21 12:06:23;;;;;;;4.97;3.42;;;;;;;28.31;44.60;99065.38;5036397;28;20053;-80
2021/08/21 12:08:50;;;;;;;7.22;3.65;;;;;;;28.27;42.83;99078.28;5036594;28;20088;-80